RJSN(METAR)
07/17 15:00
METAR RJSN 170600Z 36011KT 9999 FEW008 SCT010 26/23 Q1012 RMK 2CU008
4CU010 A2990=
戻る
トップページへ戻る
IMOC Co,.Ltd.